Capri, Italy

7:01 PM CET on December 06, 2016 (GMT +0100)
Priora | | Change Station

Elev 774 ft 40.62 °N, 14.36 °E | Updated 2 seconds ago

Mostly Cloudy
Mostly Cloudy
57.8 °F
Feels Like 57.8 °F
N
4.0
Wind Variable Wind from East
Gusts 4.0 mph

Today
High -- | Low -- °F
--% Chance of Precip.
Yesterday
High -- | Low -- °F
Precip. -- in
Pressure 30.30 in
Visibility 6.2 miles
Clouds Mostly Cloudy 7000 ft
Dew Point 34 °F
Humidity 41%
Rainfall 0.20 in
Snow Depth Not available.
7:12 AM 4:36 PM
Waxing Crescent, 43% visible
METAR LIRN 061750Z 03010KT 340V050 9999 BKN070 13/05 Q1026 NOSIG
Pressure 30.30 in
Visibility 6.2 miles
Clouds Mostly Cloudy 7000 ft
Dew Point 34 °F
Humidity 41%
Rainfall 0.20 in
Snow Depth Not available.
7:12 AM 4:36 PM
Waxing Crescent, 43% visible
METAR LIRN 061750Z 03010KT 340V050 9999 BKN070 13/05 Q1026 NOSIG

10-Day Weather Forecast

×

Almanac

Astronomy

Dec. 06, 2016 Rise Set
Actual Time
Civil Twilight
Nautical Twilight
Astronomical Twilight
Moon
Length of Visible Light
Length of Day
Tomorrow will be .
, % of the Moon is Illuminated

Today's Extremes

Country Highs Country Lows

Community

WunderPhotos

Upload Photos

1,955,989 photos uploaded!

WunderBlog® & News

Nearby

Air Quality

  Air Quality AQ Index Pollutant
Not available.

Snow Depth

Station Depth Elevation

Earthquake Activity

City Distance Mag. Time & Date
Minimum magnitude displayed is 2.5.

Coastal Water Temperatures

Place Temperature

Stations

Nearby Weather Stations

Station Location Temp. Windchill Dew Point Humidity Wind Precip. Elev Updated Type